Terminal Aerodrome Forecast
Issued by NWS

Home | Current Version | Previous Version | Text Only | Print | Product List | Glossary On
Versions: 1 2 3 4 5 6 7 8 9 10 11 12 13 14 15 16 17 18 19
000
FTUS42 KJAX 292338
TAFVQQ
TAF
KVQQ 292338Z 3000/3024 VRB04KT P6SM FEW050 SCT200
     FM301600 24009KT P6SM SCT040 PROB30 3020/3024 VRB15G25KT 3SM
      TSRA BKN040CB OVC080=

USA.gov is the U.S. government's official web portal to all federal, state and local government web resources and services.